Medicilandia, Brazil
Current Conditions -  °F | °C
As of 7:00 AM on Thursday 23 Oct 2014 (Local Time) from SBHT Reporting Station
Broken Clouds Broken Clouds  
Wind Chill: 75°   Ceiling: 1500
Heat Index: 75°   Visibility: 6mi
Dew Point: 75°   Wind: 0mph
Humidity: 100%   Direction: NA
Pressure: 29.91"   Gusts: NA
Location:  3.45°S, 52.89°W
Report Text: SBHT 231000Z 00000KT 9999 SCT009 BKN015 BKN080 24/24 Q1013
Loading
Personal Weather Stations






























Interactive Weather Map
Tropical Storm Tracking
New forecast layout! Learn more

10-Day Weather Forecast

Advertisements
Track Severe Weather on mobile